Ofertas de vuelos a Natal

Encontranos en
En el mes de
SalidaRegresoDíasConexionesDisponibilidadDisp.
Sab 01/01/20222022-01-01Lun 10/01/20222022-01-109ConexionesVer disponibilidad>01https://an.despegar.com/ad/1040?q=shop%2Fflights%2Fresults%2Froundtrip%2FBUE%2FNAT%2F2022-01-01%2F2022-01-10%2F1%2F0%2F0
Mar 04/01/20222022-01-04Lun 17/01/20222022-01-1713ConexionesVer disponibilidad>01https://an.despegar.com/ad/1040?q=shop%2Fflights%2Fresults%2Froundtrip%2FBUE%2FNAT%2F2022-01-04%2F2022-01-17%2F1%2F0%2F0
Sab 08/01/20222022-01-08Dom 23/01/20222022-01-2315ConexionesVer disponibilidad>01https://an.despegar.com/ad/1040?q=shop%2Fflights%2Fresults%2Froundtrip%2FBUE%2FNAT%2F2022-01-08%2F2022-01-23%2F1%2F0%2F0
Sab 08/01/20222022-01-08Lun 17/01/20222022-01-179ConexionesVer disponibilidad>01https://an.despegar.com/ad/1040?q=shop%2Fflights%2Fresults%2Froundtrip%2FBUE%2FNAT%2F2022-01-08%2F2022-01-17%2F1%2F0%2F0
Jue 13/01/20222022-01-13Dom 23/01/20222022-01-2310ConexionesVer disponibilidad>01https://an.despegar.com/ad/1040?q=shop%2Fflights%2Fresults%2Froundtrip%2FBUE%2FNAT%2F2022-01-13%2F2022-01-23%2F1%2F0%2F0
Lun 17/01/20222022-01-17Lun 24/01/20222022-01-247ConexionesVer disponibilidad>01https://an.despegar.com/ad/1040?q=shop%2Fflights%2Fresults%2Froundtrip%2FBUE%2FNAT%2F2022-01-17%2F2022-01-24%2F1%2F0%2F0
Mie 26/01/20222022-01-26Lun 07/02/20222022-02-0712ConexionesVer disponibilidad>01https://an.despegar.com/ad/1040?q=shop%2Fflights%2Fresults%2Froundtrip%2FBUE%2FNAT%2F2022-01-26%2F2022-02-07%2F1%2F0%2F0
Jue 27/01/20222022-01-27Dom 06/02/20222022-02-0610ConexionesVer disponibilidad>01https://an.despegar.com/ad/1040?q=shop%2Fflights%2Fresults%2Froundtrip%2FBUE%2FNAT%2F2022-01-27%2F2022-02-06%2F1%2F0%2F0
Sab 29/01/20222022-01-29Dom 13/02/20222022-02-1315ConexionesVer disponibilidad>01https://an.despegar.com/ad/1040?q=shop%2Fflights%2Fresults%2Froundtrip%2FBUE%2FNAT%2F2022-01-29%2F2022-02-13%2F1%2F0%2F0
Mar 01/02/20222022-02-01Lun 14/02/20222022-02-1413ConexionesVer disponibilidad>02https://an.despegar.com/ad/1040?q=shop%2Fflights%2Fresults%2Froundtrip%2FBUE%2FNAT%2F2022-02-01%2F2022-02-14%2F1%2F0%2F0
Mar 01/02/20222022-02-01Mar 22/02/20222022-02-2221ConexionesVer disponibilidad>02https://an.despegar.com/ad/1040?q=shop%2Fflights%2Fresults%2Froundtrip%2FBUE%2FNAT%2F2022-02-01%2F2022-02-22%2F1%2F0%2F0
Mie 09/02/20222022-02-09Mie 23/02/20222022-02-2314ConexionesVer disponibilidad>02https://an.despegar.com/ad/1040?q=shop%2Fflights%2Fresults%2Froundtrip%2FBUE%2FNAT%2F2022-02-09%2F2022-02-23%2F1%2F0%2F0
Vie 18/02/20222022-02-18Vie 25/02/20222022-02-257ConexionesVer disponibilidad>02https://an.despegar.com/ad/1040?q=shop%2Fflights%2Fresults%2Froundtrip%2FBUE%2FNAT%2F2022-02-18%2F2022-02-25%2F1%2F0%2F0
Sab 19/02/20222022-02-19Dom 06/03/20222022-03-0615ConexionesVer disponibilidad>02https://an.despegar.com/ad/1040?q=shop%2Fflights%2Fresults%2Froundtrip%2FBUE%2FNAT%2F2022-02-19%2F2022-03-06%2F1%2F0%2F0
Sab 26/02/20222022-02-26Dom 06/03/20222022-03-068ConexionesVer disponibilidad>02https://an.despegar.com/ad/1040?q=shop%2Fflights%2Fresults%2Froundtrip%2FBUE%2FNAT%2F2022-02-26%2F2022-03-06%2F1%2F0%2F0
Sab 26/02/20222022-02-26Dom 13/03/20222022-03-1315ConexionesVer disponibilidad>02https://an.despegar.com/ad/1040?q=shop%2Fflights%2Fresults%2Froundtrip%2FBUE%2FNAT%2F2022-02-26%2F2022-03-13%2F1%2F0%2F0
Dom 27/02/20222022-02-27Dom 13/03/20222022-03-1314ConexionesVer disponibilidad>02https://an.despegar.com/ad/1040?q=shop%2Fflights%2Fresults%2Froundtrip%2FBUE%2FNAT%2F2022-02-27%2F2022-03-13%2F1%2F0%2F0
Mar 01/03/20222022-03-01Vie 11/03/20222022-03-1110ConexionesVer disponibilidad>03https://an.despegar.com/ad/1040?q=shop%2Fflights%2Fresults%2Froundtrip%2FBUE%2FNAT%2F2022-03-01%2F2022-03-11%2F1%2F0%2F0
Dom 06/03/20222022-03-06Dom 13/03/20222022-03-137ConexionesVer disponibilidad>03https://an.despegar.com/ad/1040?q=shop%2Fflights%2Fresults%2Froundtrip%2FBUE%2FNAT%2F2022-03-06%2F2022-03-13%2F1%2F0%2F0
Vie 18/03/20222022-03-18Lun 28/03/20222022-03-2810ConexionesVer disponibilidad>03https://an.despegar.com/ad/1040?q=shop%2Fflights%2Fresults%2Froundtrip%2FBUE%2FNAT%2F2022-03-18%2F2022-03-28%2F1%2F0%2F0
Sab 09/04/20222022-04-09Dom 17/04/20222022-04-178ConexionesVer disponibilidad>04https://an.despegar.com/ad/1040?q=shop%2Fflights%2Fresults%2Froundtrip%2FBUE%2FNAT%2F2022-04-09%2F2022-04-17%2F1%2F0%2F0
Dom 10/04/20222022-04-10Dom 24/04/20222022-04-2414ConexionesVer disponibilidad>04https://an.despegar.com/ad/1040?q=shop%2Fflights%2Fresults%2Froundtrip%2FBUE%2FNAT%2F2022-04-10%2F2022-04-24%2F1%2F0%2F0
Mie 01/06/20222022-06-01Mie 15/06/20222022-06-1514ConexionesVer disponibilidad>06https://an.despegar.com/ad/1040?q=shop%2Fflights%2Fresults%2Froundtrip%2FBUE%2FNAT%2F2022-06-01%2F2022-06-15%2F1%2F0%2F0
Vie 03/06/20222022-06-03Vie 17/06/20222022-06-1714ConexionesVer disponibilidad>06https://an.despegar.com/ad/1040?q=shop%2Fflights%2Fresults%2Froundtrip%2FBUE%2FNAT%2F2022-06-03%2F2022-06-17%2F1%2F0%2F0
Jue 23/06/20222022-06-23Jue 30/06/20222022-06-307ConexionesVer disponibilidad>06https://an.despegar.com/ad/1040?q=shop%2Fflights%2Fresults%2Froundtrip%2FBUE%2FNAT%2F2022-06-23%2F2022-06-30%2F1%2F0%2F0

Es posible que la disponibilidad de vuelos hacia este destino se vea afectada debido al COVID-19. Si es tu caso, te invitamos a realizar una nueva búsqueda a través de este link.

Asistencia al viajero

Cotiza tu ASSIST CARD

Origen
Destino

Información general sobre Natal

Natal, que en español significa Navidad, es una ciudad brasileña localizada en el estado de Rio Grande do Norte. Atravesada por el río Potengi, la capital nordestina cuenta con playas, dunas y diferentes atracciones históricas. Anualmente recibe a dos millones de turistas y es la puerta de entrada hacia otros importantes destinos del estado.

Pasajes Aéreos y Vuelos Baratos a Natal

Descargá gratis nuestra nueva app para Android y iOS.
Suscribite a las notificaciones de Chrome y Safari.
Seguinos en Facebook, Twitter e Instagram
Suscribite a nuestro newsletter aquí.